Terminal Aerodrome Forecast
Issued by NWS Blacksburg, VA

Current Version | Previous Version | Graphics & Text | Print | Product List | Glossary On
Versions: 1 2 3 4 5 6 7 8 9 10 11 12 13 14 15 16 17 18 19 20 21 22 23 24 25 26 27 28 29 30 31 32 33 34 35
000
FTUS41 KRNK 132340
TAFBLF
TAF
KBLF 132340Z 1400/1424 30012KT P6SM SKC
     FM140400 30006KT P6SM SCT250
     FM141000 VRB03KT P6SM OVC250
     FM141700 13004KT P6SM OVC100
     FM142100 13006KT 5SM -SN SCT020 OVC050
     FM142300 15006KT 1 1/2SM -SN OVC020=

USA.gov is the U.S. government's official web portal to all federal, state and local government web resources and services.